West Woodward Airport
KWWR : now visible

Airfield :











YOU CAN JOIN US ON...

 
LOGIN :

Register | Disclaimer

   EN    FR    IT 

 









Legend :    VFR   Marginal VFR   IFR   Intensive IFR   Very Intensive IFR
Visi :
Ceiling :
>= 8 km
>= 3000ft
5 to 8 km
1000 to 3000 ft
1500m to 5 km
500 to 1000 ft
800 to 1500m
200 to 500 ft
< 800m
< 200 ft
Symbols :   Thunderstorms  Fog  Heavy snow  Heavy precipitations  Wind > 20 kt






- Airport Elevation : 2189 ft


KWWR - West Woodward

CURRENT METAR :
  • 180715Z AUTO 02011KT 10SM CLR 05/M01 A3010 RMK AO2

EXPIRED METARs :
  • 180655Z AUTO 03008KT 10SM CLR 05/M01 A3010 RMK AO2
  • 180635Z AUTO 02010G16KT 10SM SCT110 06/M01 A3010 RMK AO2
  • 180615Z AUTO 02011KT 10SM SCT110 06/M01 A3009 RMK AO2
  • 180555Z AUTO 02010G16KT 10SM BKN110 06/M01 A3009 RMK AO2
  • 180535Z AUTO 02009KT 10SM BKN120 07/M01 A3008 RMK AO2
  • 180515Z AUTO 03014G20KT 10SM CLR 07/M01 A3006 RMK AO2
  • 180455Z AUTO 02016KT 10SM CLR 07/M01 A3004 RMK AO2

TAF KWWR
Valid from the 18 at 06:00 until the 19 at 06:00 UTC


180520Z 1806/1906 02014G21KT P6SM BKN080
FM182000 04012KT P6SM SCT150
FM190300 09005KT P6SM SCT250



MET'MAP, your aeronautical weather chart ! - Copyright ORBIFLY December 2007 - Disclaimer

ORBIFLY MET'MAP TEAM :

Programming & Development : Alexandra Zaïnal
Concept & original design : Baudouin d'Aumeries
Assistance for programming : Marc-Olivier Méhu
Technical & hardware support : Manuel Goepfert

Contact : metmap@orbifly.com




SOURCES & CREDITS :

   NOAA       Earth
Advisory